sensor_id;sensor_type;location;lat;lon;timestamp;pressure;altitude;pressure_sealevel;temperature;humidity
16821;BME280;8527;49.740;6.604;2023-12-20T00:01:57;99842.75;;;5.70;100.00
16821;BME280;8527;49.740;6.604;2023-12-20T00:07:05;99848.41;;;5.75;100.00
16821;BME280;8527;49.740;6.604;2023-12-20T00:12:09;99845.66;;;5.67;100.00
16821;BME280;8527;49.740;6.604;2023-12-20T00:17:08;99852.19;;;5.72;100.00
16821;BME280;8527;49.740;6.604;2023-12-20T00:22:08;99847.31;;;5.68;100.00
16821;BME280;8527;49.740;6.604;2023-12-20T00:27:14;99843.88;;;5.77;100.00
16821;BME280;8527;49.740;6.604;2023-12-20T00:32:18;99833.88;;;5.71;100.00
16821;BME280;8527;49.740;6.604;2023-12-20T00:37:17;99846.34;;;5.69;100.00
16821;BME280;8527;49.740;6.604;2023-12-20T00:42:22;99833.19;;;5.78;100.00
16821;BME280;8527;49.740;6.604;2023-12-20T00:47:26;99828.09;;;5.77;100.00
16821;BME280;8527;49.740;6.604;2023-12-20T00:52:27;99836.81;;;5.87;100.00
16821;BME280;8527;49.740;6.604;2023-12-20T00:57:28;99842.91;;;5.78;100.00
16821;BME280;8527;49.740;6.604;2023-12-20T01:02:30;99841.66;;;5.72;100.00
16821;BME280;8527;49.740;6.604;2023-12-20T01:07:36;99844.84;;;5.76;100.00
16821;BME280;8527;49.740;6.604;2023-12-20T01:12:37;99840.09;;;5.70;100.00
16821;BME280;8527;49.740;6.604;2023-12-20T01:17:45;99845.84;;;5.85;100.00
16821;BME280;8527;49.740;6.604;2023-12-20T01:22:44;99825.47;;;5.87;100.00
16821;BME280;8527;49.740;6.604;2023-12-20T01:27:47;99844.00;;;5.75;100.00
16821;BME280;8527;49.740;6.604;2023-12-20T01:32:46;99836.22;;;5.74;100.00
16821;BME280;8527;49.740;6.604;2023-12-20T01:37:44;99838.06;;;5.93;100.00
16821;BME280;8527;49.740;6.604;2023-12-20T01:43:00;99847.91;;;5.81;100.00
16821;BME280;8527;49.740;6.604;2023-12-20T01:47:59;99854.81;;;5.82;100.00
16821;BME280;8527;49.740;6.604;2023-12-20T01:52:58;99844.84;;;5.86;100.00
16821;BME280;8527;49.740;6.604;2023-12-20T01:58:01;99847.22;;;5.89;100.00
16821;BME280;8527;49.740;6.604;2023-12-20T02:03:01;99864.41;;;5.93;100.00
16821;BME280;8527;49.740;6.604;2023-12-20T02:08:00;99861.06;;;5.91;100.00
16821;BME280;8527;49.740;6.604;2023-12-20T02:13:01;99864.81;;;5.88;100.00
16821;BME280;8527;49.740;6.604;2023-12-20T02:18:01;99876.31;;;5.87;100.00
16821;BME280;8527;49.740;6.604;2023-12-20T02:23:03;99881.03;;;5.94;100.00
16821;BME280;8527;49.740;6.604;2023-12-20T02:28:08;99880.75;;;5.87;100.00
16821;BME280;8527;49.740;6.604;2023-12-20T02:33:10;99873.53;;;5.89;100.00
16821;BME280;8527;49.740;6.604;2023-12-20T02:38:12;99873.16;;;5.94;100.00
16821;BME280;8527;49.740;6.604;2023-12-20T02:43:11;99872.28;;;5.83;100.00
16821;BME280;8527;49.740;6.604;2023-12-20T02:48:09;99885.03;;;5.88;100.00
16821;BME280;8527;49.740;6.604;2023-12-20T02:53:08;99871.88;;;5.78;100.00
16821;BME280;8527;49.740;6.604;2023-12-20T02:58:09;99888.19;;;5.72;100.00
16821;BME280;8527;49.740;6.604;2023-12-20T03:03:07;99883.75;;;5.72;100.00
16821;BME280;8527;49.740;6.604;2023-12-20T03:08:08;99910.22;;;5.71;100.00
16821;BME280;8527;49.740;6.604;2023-12-20T03:13:09;99904.38;;;5.67;100.00
16821;BME280;8527;49.740;6.604;2023-12-20T03:18:08;99922.94;;;5.66;100.00
16821;BME280;8527;49.740;6.604;2023-12-20T03:23:13;99926.34;;;5.56;100.00
16821;BME280;8527;49.740;6.604;2023-12-20T03:28:18;99942.22;;;5.45;100.00
16821;BME280;8527;49.740;6.604;2023-12-20T03:33:19;99952.28;;;5.61;100.00
16821;BME280;8527;49.740;6.604;2023-12-20T03:38:18;99959.78;;;5.66;100.00
16821;BME280;8527;49.740;6.604;2023-12-20T03:43:18;99972.81;;;5.67;100.00
16821;BME280;8527;49.740;6.604;2023-12-20T03:48:17;99966.13;;;5.63;100.00
16821;BME280;8527;49.740;6.604;2023-12-20T03:53:15;99977.53;;;5.63;100.00
16821;BME280;8527;49.740;6.604;2023-12-20T03:58:22;99980.78;;;5.56;100.00
16821;BME280;8527;49.740;6.604;2023-12-20T04:03:24;99979.28;;;5.32;100.00
16821;BME280;8527;49.740;6.604;2023-12-20T04:08:26;99977.63;;;5.31;100.00
16821;BME280;8527;49.740;6.604;2023-12-20T04:13:27;99989.06;;;5.30;100.00
16821;BME280;8527;49.740;6.604;2023-12-20T04:18:32;99987.13;;;5.11;100.00
16821;BME280;8527;49.740;6.604;2023-12-20T04:23:30;99978.75;;;4.96;100.00
16821;BME280;8527;49.740;6.604;2023-12-20T04:28:31;99992.38;;;4.89;100.00
16821;BME280;8527;49.740;6.604;2023-12-20T04:33:29;99981.03;;;4.89;100.00
16821;BME280;8527;49.740;6.604;2023-12-20T04:38:33;99986.78;;;4.83;100.00
16821;BME280;8527;49.740;6.604;2023-12-20T04:43:42;99993.00;;;4.82;100.00
16821;BME280;8527;49.740;6.604;2023-12-20T04:48:43;99996.81;;;4.89;100.00
16821;BME280;8527;49.740;6.604;2023-12-20T04:53:42;100002.22;;;4.76;100.00
16821;BME280;8527;49.740;6.604;2023-12-20T04:58:46;100004.81;;;4.87;100.00
16821;BME280;8527;49.740;6.604;2023-12-20T05:03:47;100021.88;;;4.93;100.00
16821;BME280;8527;49.740;6.604;2023-12-20T05:08:49;100032.06;;;4.86;100.00
16821;BME280;8527;49.740;6.604;2023-12-20T05:13:52;100033.66;;;4.77;100.00
16821;BME280;8527;49.740;6.604;2023-12-20T05:18:52;100034.13;;;4.71;100.00
16821;BME280;8527;49.740;6.604;2023-12-20T05:23:56;100026.59;;;4.78;100.00
16821;BME280;8527;49.740;6.604;2023-12-20T05:29:07;100034.84;;;4.73;100.00
16821;BME280;8527;49.740;6.604;2023-12-20T05:34:06;100036.06;;;4.69;100.00
16821;BME280;8527;49.740;6.604;2023-12-20T05:39:05;100034.88;;;4.62;100.00
16821;BME280;8527;49.740;6.604;2023-12-20T05:44:06;100033.34;;;4.59;100.00
16821;BME280;8527;49.740;6.604;2023-12-20T05:49:05;100047.19;;;4.61;100.00
16821;BME280;8527;49.740;6.604;2023-12-20T05:54:04;100041.06;;;4.61;100.00
16821;BME280;8527;49.740;6.604;2023-12-20T05:59:03;100046.84;;;4.55;100.00
16821;BME280;8527;49.740;6.604;2023-12-20T06:04:04;100042.91;;;4.49;100.00
16821;BME280;8527;49.740;6.604;2023-12-20T06:09:02;100051.03;;;4.46;100.00
16821;BME280;8527;49.740;6.604;2023-12-20T06:14:00;100064.88;;;4.48;100.00
16821;BME280;8527;49.740;6.604;2023-12-20T06:18:59;100074.31;;;4.50;100.00
16821;BME280;8527;49.740;6.604;2023-12-20T06:24:01;100064.97;;;4.46;100.00
16821;BME280;8527;49.740;6.604;2023-12-20T06:28:59;100067.97;;;4.42;100.00
16821;BME280;8527;49.740;6.604;2023-12-20T06:33:57;100066.78;;;4.46;100.00
16821;BME280;8527;49.740;6.604;2023-12-20T06:38:56;100061.53;;;4.46;100.00
16821;BME280;8527;49.740;6.604;2023-12-20T06:43:57;100052.59;;;4.37;100.00
16821;BME280;8527;49.740;6.604;2023-12-20T06:49:01;100069.78;;;4.41;100.00
16821;BME280;8527;49.740;6.604;2023-12-20T06:54:05;100055.78;;;4.41;100.00
16821;BME280;8527;49.740;6.604;2023-12-20T06:59:08;100067.16;;;4.41;100.00
16821;BME280;8527;49.740;6.604;2023-12-20T07:04:07;100070.50;;;4.43;100.00
16821;BME280;8527;49.740;6.604;2023-12-20T07:09:06;100077.56;;;4.43;100.00
16821;BME280;8527;49.740;6.604;2023-12-20T07:14:11;100064.97;;;4.46;100.00
16821;BME280;8527;49.740;6.604;2023-12-20T07:19:09;100078.13;;;4.46;100.00
16821;BME280;8527;49.740;6.604;2023-12-20T07:24:07;100088.88;;;4.43;100.00
16821;BME280;8527;49.740;6.604;2023-12-20T07:29:06;100085.03;;;4.36;100.00
16821;BME280;8527;49.740;6.604;2023-12-20T07:34:07;100091.75;;;4.40;100.00
16821;BME280;8527;49.740;6.604;2023-12-20T07:39:05;100087.31;;;4.41;100.00
16821;BME280;8527;49.740;6.604;2023-12-20T07:44:04;100093.16;;;4.44;100.00
16821;BME280;8527;49.740;6.604;2023-12-20T07:49:03;100101.41;;;4.51;100.00
16821;BME280;8527;49.740;6.604;2023-12-20T07:54:07;100095.56;;;4.47;100.00
16821;BME280;8527;49.740;6.604;2023-12-20T07:59:06;100094.84;;;4.45;100.00
16821;BME280;8527;49.740;6.604;2023-12-20T08:04:04;100102.13;;;4.53;100.00
16821;BME280;8527;49.740;6.604;2023-12-20T08:09:08;100094.97;;;4.55;100.00
16821;BME280;8527;49.740;6.604;2023-12-20T08:14:06;100105.94;;;4.60;100.00
16821;BME280;8527;49.740;6.604;2023-12-20T08:19:05;100095.19;;;4.63;100.00
16821;BME280;8527;49.740;6.604;2023-12-20T08:24:04;100097.22;;;4.60;100.00
16821;BME280;8527;49.740;6.604;2023-12-20T08:29:05;100101.28;;;4.64;100.00
16821;BME280;8527;49.740;6.604;2023-12-20T08:34:04;100099.22;;;4.68;100.00
16821;BME280;8527;49.740;6.604;2023-12-20T08:39:07;100096.25;;;4.72;100.00
16821;BME280;8527;49.740;6.604;2023-12-20T08:44:08;100098.75;;;4.85;100.00
16821;BME280;8527;49.740;6.604;2023-12-20T08:49:12;100100.75;;;4.93;100.00
16821;BME280;8527;49.740;6.604;2023-12-20T08:54:13;100123.72;;;4.91;100.00
16821;BME280;8527;49.740;6.604;2023-12-20T08:59:15;100125.63;;;4.89;100.00
16821;BME280;8527;49.740;6.604;2023-12-20T09:04:14;100106.50;;;4.87;100.00
16821;BME280;8527;49.740;6.604;2023-12-20T09:09:15;100099.56;;;4.86;100.00
16821;BME280;8527;49.740;6.604;2023-12-20T09:14:16;100103.75;;;4.88;100.00
16821;BME280;8527;49.740;6.604;2023-12-20T09:19:18;100106.25;;;4.90;100.00
16821;BME280;8527;49.740;6.604;2023-12-20T09:24:16;100118.19;;;4.94;100.00
16821;BME280;8527;49.740;6.604;2023-12-20T09:29:20;100112.91;;;5.05;100.00
16821;BME280;8527;49.740;6.604;2023-12-20T09:34:18;100108.25;;;5.09;100.00
16821;BME280;8527;49.740;6.604;2023-12-20T09:39:18;100108.44;;;5.17;100.00
16821;BME280;8527;49.740;6.604;2023-12-20T09:44:25;100099.44;;;5.31;100.00
16821;BME280;8527;49.740;6.604;2023-12-20T09:49:23;100104.44;;;5.34;100.00
16821;BME280;8527;49.740;6.604;2023-12-20T09:54:23;100113.50;;;5.42;100.00
16821;BME280;8527;49.740;6.604;2023-12-20T09:59:29;100106.44;;;5.42;100.00
16821;BME280;8527;49.740;6.604;2023-12-20T10:04:28;100103.06;;;5.52;100.00
16821;BME280;8527;49.740;6.604;2023-12-20T10:09:31;100100.31;;;5.53;100.00
16821;BME280;8527;49.740;6.604;2023-12-20T10:14:32;100104.34;;;5.57;100.00
16821;BME280;8527;49.740;6.604;2023-12-20T10:19:40;100091.00;;;5.70;100.00
16821;BME280;8527;49.740;6.604;2023-12-20T10:24:40;100088.75;;;5.87;100.00
16821;BME280;8527;49.740;6.604;2023-12-20T10:29:42;100101.00;;;5.98;100.00
16821;BME280;8527;49.740;6.604;2023-12-20T10:34:40;100090.97;;;6.03;100.00
16821;BME280;8527;49.740;6.604;2023-12-20T10:39:39;100090.47;;;5.98;100.00
16821;BME280;8527;49.740;6.604;2023-12-20T10:44:44;100088.50;;;5.90;100.00
16821;BME280;8527;49.740;6.604;2023-12-20T10:49:45;100090.16;;;5.91;100.00
16821;BME280;8527;49.740;6.604;2023-12-20T10:54:44;100084.88;;;5.91;100.00
16821;BME280;8527;49.740;6.604;2023-12-20T10:59:46;100082.41;;;5.89;100.00
16821;BME280;8527;49.740;6.604;2023-12-20T11:04:51;100079.50;;;5.93;100.00
16821;BME280;8527;49.740;6.604;2023-12-20T11:09:57;100076.47;;;5.97;100.00
16821;BME280;8527;49.740;6.604;2023-12-20T11:15:03;100073.84;;;5.97;100.00
16821;BME280;8527;49.740;6.604;2023-12-20T11:20:07;100053.44;;;6.11;100.00
16821;BME280;8527;49.740;6.604;2023-12-20T11:25:08;100043.78;;;6.21;100.00
16821;BME280;8527;49.740;6.604;2023-12-20T11:30:14;100055.81;;;6.24;100.00
16821;BME280;8527;49.740;6.604;2023-12-20T11:35:18;100046.81;;;6.26;100.00
16821;BME280;8527;49.740;6.604;2023-12-20T11:40:20;100049.78;;;6.43;100.00
16821;BME280;8527;49.740;6.604;2023-12-20T11:45:24;100043.78;;;6.31;100.00
16821;BME280;8527;49.740;6.604;2023-12-20T11:50:28;100047.69;;;6.37;100.00
16821;BME280;8527;49.740;6.604;2023-12-20T11:55:26;100053.94;;;6.36;100.00
16821;BME280;8527;49.740;6.604;2023-12-20T12:00:27;100057.16;;;6.49;100.00
16821;BME280;8527;49.740;6.604;2023-12-20T12:05:30;100044.78;;;6.40;100.00
16821;BME280;8527;49.740;6.604;2023-12-20T12:10:29;100043.84;;;6.51;100.00
16821;BME280;8527;49.740;6.604;2023-12-20T12:15:30;100038.69;;;6.39;100.00
16821;BME280;8527;49.740;6.604;2023-12-20T12:20:35;100038.44;;;6.42;100.00
16821;BME280;8527;49.740;6.604;2023-12-20T12:25:35;100024.56;;;6.40;100.00
16821;BME280;8527;49.740;6.604;2023-12-20T12:30:37;100013.03;;;6.41;100.00
16821;BME280;8527;49.740;6.604;2023-12-20T12:35:36;99996.78;;;6.36;100.00
16821;BME280;8527;49.740;6.604;2023-12-20T12:40:35;99998.91;;;6.42;100.00
16821;BME280;8527;49.740;6.604;2023-12-20T12:45:36;99993.22;;;6.47;100.00
16821;BME280;8527;49.740;6.604;2023-12-20T12:50:35;99995.97;;;6.36;100.00
16821;BME280;8527;49.740;6.604;2023-12-20T12:55:35;99986.00;;;6.39;100.00
16821;BME280;8527;49.740;6.604;2023-12-20T13:00:34;99981.84;;;6.56;100.00
16821;BME280;8527;49.740;6.604;2023-12-20T13:05:34;99970.03;;;6.51;100.00
16821;BME280;8527;49.740;6.604;2023-12-20T13:10:33;99970.75;;;6.53;100.00
16821;BME280;8527;49.740;6.604;2023-12-20T13:15:34;99953.53;;;6.48;100.00
16821;BME280;8527;49.740;6.604;2023-12-20T13:20:35;99954.38;;;6.49;100.00
16821;BME280;8527;49.740;6.604;2023-12-20T13:25:38;99954.94;;;6.53;100.00
16821;BME280;8527;49.740;6.604;2023-12-20T13:30:39;99954.09;;;6.42;100.00
16821;BME280;8527;49.740;6.604;2023-12-20T13:35:41;99958.97;;;6.47;100.00
16821;BME280;8527;49.740;6.604;2023-12-20T13:40:42;99962.00;;;6.42;100.00
16821;BME280;8527;49.740;6.604;2023-12-20T13:45:44;99934.28;;;6.48;100.00
16821;BME280;8527;49.740;6.604;2023-12-20T13:50:45;99933.13;;;6.51;100.00
16821;BME280;8527;49.740;6.604;2023-12-20T13:55:43;99927.75;;;6.52;100.00
16821;BME280;8527;49.740;6.604;2023-12-20T14:00:45;99921.63;;;6.42;100.00
16821;BME280;8527;49.740;6.604;2023-12-20T14:05:46;99924.81;;;6.45;100.00
16821;BME280;8527;49.740;6.604;2023-12-20T14:10:47;99921.91;;;6.39;100.00
16821;BME280;8527;49.740;6.604;2023-12-20T14:15:45;99923.56;;;6.30;100.00
16821;BME280;8527;49.740;6.604;2023-12-20T14:20:50;99918.88;;;6.33;100.00
16821;BME280;8527;49.740;6.604;2023-12-20T14:25:49;99910.00;;;6.35;100.00
16821;BME280;8527;49.740;6.604;2023-12-20T14:30:51;99904.03;;;6.52;100.00
16821;BME280;8527;49.740;6.604;2023-12-20T14:35:52;99894.44;;;6.51;100.00
16821;BME280;8527;49.740;6.604;2023-12-20T14:40:54;99885.88;;;6.39;100.00
16821;BME280;8527;49.740;6.604;2023-12-20T14:45:52;99877.25;;;6.37;100.00
16821;BME280;8527;49.740;6.604;2023-12-20T14:50:53;99878.38;;;6.35;100.00
16821;BME280;8527;49.740;6.604;2023-12-20T14:55:57;99867.53;;;6.38;100.00
16821;BME280;8527;49.740;6.604;2023-12-20T15:00:57;99858.66;;;6.39;100.00
16821;BME280;8527;49.740;6.604;2023-12-20T15:05:59;99867.66;;;6.36;100.00
16821;BME280;8527;49.740;6.604;2023-12-20T15:10:57;99863.66;;;6.32;100.00
16821;BME280;8527;49.740;6.604;2023-12-20T15:15:56;99874.75;;;6.36;100.00
16821;BME280;8527;49.740;6.604;2023-12-20T15:20:55;99873.78;;;6.37;100.00
16821;BME280;8527;49.740;6.604;2023-12-20T15:25:56;99867.94;;;6.33;100.00
16821;BME280;8527;49.740;6.604;2023-12-20T15:30:54;99878.50;;;6.43;100.00
16821;BME280;8527;49.740;6.604;2023-12-20T15:35:53;99872.13;;;6.36;100.00
16821;BME280;8527;49.740;6.604;2023-12-20T15:40:51;99870.06;;;6.39;100.00
16821;BME280;8527;49.740;6.604;2023-12-20T15:45:52;99862.00;;;6.31;100.00
16821;BME280;8527;49.740;6.604;2023-12-20T15:50:50;99857.41;;;6.33;100.00
16821;BME280;8527;49.740;6.604;2023-12-20T15:55:49;99857.00;;;6.38;100.00
16821;BME280;8527;49.740;6.604;2023-12-20T16:00:53;99847.44;;;6.37;100.00
16821;BME280;8527;49.740;6.604;2023-12-20T16:05:54;99846.34;;;6.39;100.00
16821;BME280;8527;49.740;6.604;2023-12-20T16:10:53;99856.16;;;6.37;100.00
16821;BME280;8527;49.740;6.604;2023-12-20T16:15:55;99857.69;;;6.40;100.00
16821;BME280;8527;49.740;6.604;2023-12-20T16:20:54;99853.69;;;6.36;100.00
16821;BME280;8527;49.740;6.604;2023-12-20T16:25:53;99843.44;;;6.32;100.00
16821;BME280;8527;49.740;6.604;2023-12-20T16:30:51;99863.53;;;6.43;100.00
16821;BME280;8527;49.740;6.604;2023-12-20T16:35:55;99865.47;;;6.41;100.00
16821;BME280;8527;49.740;6.604;2023-12-20T16:40:53;99858.13;;;6.45;100.00
16821;BME280;8527;49.740;6.604;2023-12-20T16:45:54;99854.34;;;6.47;100.00
16821;BME280;8527;49.740;6.604;2023-12-20T16:51:01;99856.03;;;6.39;100.00
16821;BME280;8527;49.740;6.604;2023-12-20T16:55:59;99856.88;;;6.39;100.00
16821;BME280;8527;49.740;6.604;2023-12-20T17:01:00;99866.56;;;6.39;100.00
16821;BME280;8527;49.740;6.604;2023-12-20T17:06:04;99864.63;;;6.41;100.00
16821;BME280;8527;49.740;6.604;2023-12-20T17:11:02;99871.16;;;6.37;100.00
16821;BME280;8527;49.740;6.604;2023-12-20T17:16:01;99879.75;;;6.29;100.00
16821;BME280;8527;49.740;6.604;2023-12-20T17:21:02;99860.47;;;6.28;100.00
16821;BME280;8527;49.740;6.604;2023-12-20T17:26:07;99864.22;;;6.36;100.00
16821;BME280;8527;49.740;6.604;2023-12-20T17:31:09;99859.91;;;6.35;100.00
16821;BME280;8527;49.740;6.604;2023-12-20T17:36:13;99843.44;;;6.32;100.00
16821;BME280;8527;49.740;6.604;2023-12-20T17:41:12;99847.56;;;6.35;100.00
16821;BME280;8527;49.740;6.604;2023-12-20T17:46:11;99835.38;;;6.34;100.00
16821;BME280;8527;49.740;6.604;2023-12-20T17:51:09;99839.94;;;6.32;100.00
16821;BME280;8527;49.740;6.604;2023-12-20T17:56:10;99824.69;;;6.36;100.00
16821;BME280;8527;49.740;6.604;2023-12-20T18:01:11;99810.84;;;6.33;100.00
16821;BME280;8527;49.740;6.604;2023-12-20T18:06:13;99813.19;;;6.37;100.00
16821;BME280;8527;49.740;6.604;2023-12-20T18:11:20;99795.16;;;6.32;100.00
16821;BME280;8527;49.740;6.604;2023-12-20T18:16:18;99773.78;;;6.35;100.00
16821;BME280;8527;49.740;6.604;2023-12-20T18:21:16;99787.13;;;6.33;100.00
16821;BME280;8527;49.740;6.604;2023-12-20T18:26:18;99786.66;;;6.38;100.00
16821;BME280;8527;49.740;6.604;2023-12-20T18:31:19;99771.56;;;6.30;100.00
16821;BME280;8527;49.740;6.604;2023-12-20T18:36:20;99760.63;;;6.35;100.00
16821;BME280;8527;49.740;6.604;2023-12-20T18:41:26;99766.31;;;6.40;100.00
16821;BME280;8527;49.740;6.604;2023-12-20T18:46:24;99782.38;;;6.47;100.00
16821;BME280;8527;49.740;6.604;2023-12-20T18:51:22;99777.13;;;6.47;100.00
16821;BME280;8527;49.740;6.604;2023-12-20T18:56:26;99778.78;;;6.48;100.00
16821;BME280;8527;49.740;6.604;2023-12-20T19:01:25;99779.47;;;6.50;100.00
16821;BME280;8527;49.740;6.604;2023-12-20T19:06:33;99769.06;;;6.48;100.00
16821;BME280;8527;49.740;6.604;2023-12-20T19:11:36;99768.63;;;6.53;100.00
16821;BME280;8527;49.740;6.604;2023-12-20T19:16:35;99758.94;;;6.54;100.00
16821;BME280;8527;49.740;6.604;2023-12-20T19:21:34;99748.38;;;6.54;100.00
16821;BME280;8527;49.740;6.604;2023-12-20T19:26:34;99754.59;;;6.63;100.00
16821;BME280;8527;49.740;6.604;2023-12-20T19:31:36;99750.88;;;6.55;100.00
16821;BME280;8527;49.740;6.604;2023-12-20T19:36:40;99753.66;;;6.54;100.00
16821;BME280;8527;49.740;6.604;2023-12-20T19:41:41;99748.53;;;6.52;100.00
16821;BME280;8527;49.740;6.604;2023-12-20T19:46:40;99735.34;;;6.52;100.00
16821;BME280;8527;49.740;6.604;2023-12-20T19:51:41;99735.59;;;6.59;100.00
16821;BME280;8527;49.740;6.604;2023-12-20T19:56:42;99715.19;;;6.61;100.00
16821;BME280;8527;49.740;6.604;2023-12-20T20:01:41;99717.16;;;6.59;100.00
16821;BME280;8527;49.740;6.604;2023-12-20T20:06:40;99714.25;;;6.52;100.00
16821;BME280;8527;49.740;6.604;2023-12-20T20:11:38;99693.84;;;6.54;100.00
16821;BME280;8527;49.740;6.604;2023-12-20T20:16:39;99684.00;;;6.56;100.00
16821;BME280;8527;49.740;6.604;2023-12-20T20:21:38;99687.34;;;6.58;100.00
16821;BME280;8527;49.740;6.604;2023-12-20T20:26:39;99687.91;;;6.52;100.00
16821;BME280;8527;49.740;6.604;2023-12-20T20:31:40;99682.06;;;6.58;100.00
16821;BME280;8527;49.740;6.604;2023-12-20T20:36:38;99670.31;;;6.53;100.00
16821;BME280;8527;49.740;6.604;2023-12-20T20:41:37;99662.41;;;6.53;100.00
16821;BME280;8527;49.740;6.604;2023-12-20T20:46:42;99656.56;;;6.49;100.00
16821;BME280;8527;49.740;6.604;2023-12-20T20:51:43;99640.47;;;6.52;100.00
16821;BME280;8527;49.740;6.604;2023-12-20T20:56:42;99651.00;;;6.52;100.00
16821;BME280;8527;49.740;6.604;2023-12-20T21:01:43;99651.69;;;6.54;100.00
16821;BME280;8527;49.740;6.604;2023-12-20T21:06:41;99648.38;;;6.52;100.00
16821;BME280;8527;49.740;6.604;2023-12-20T21:11:42;99645.59;;;6.54;100.00
16821;BME280;8527;49.740;6.604;2023-12-20T21:16:46;99618.50;;;6.61;100.00
16821;BME280;8527;49.740;6.604;2023-12-20T21:21:48;99621.28;;;6.60;100.00
16821;BME280;8527;49.740;6.604;2023-12-20T21:26:46;99598.41;;;6.60;100.00
16821;BME280;8527;49.740;6.604;2023-12-20T21:31:47;99579.78;;;6.62;100.00
16821;BME280;8527;49.740;6.604;2023-12-20T21:36:46;99569.94;;;6.64;100.00
16821;BME280;8527;49.740;6.604;2023-12-20T21:41:48;99563.59;;;6.57;100.00
16821;BME280;8527;49.740;6.604;2023-12-20T21:46:49;99564.13;;;6.60;100.00
16821;BME280;8527;49.740;6.604;2023-12-20T21:51:48;99552.91;;;6.58;100.00
16821;BME280;8527;49.740;6.604;2023-12-20T21:56:46;99548.03;;;6.64;100.00
16821;BME280;8527;49.740;6.604;2023-12-20T22:01:48;99554.81;;;6.66;100.00
16821;BME280;8527;49.740;6.604;2023-12-20T22:06:47;99538.38;;;6.72;100.00
16821;BME280;8527;49.740;6.604;2023-12-20T22:11:45;99517.16;;;6.74;100.00
16821;BME280;8527;49.740;6.604;2023-12-20T22:16:46;99524.47;;;6.80;100.00
16821;BME280;8527;49.740;6.604;2023-12-20T22:21:47;99533.34;;;6.79;100.00
16821;BME280;8527;49.740;6.604;2023-12-20T22:26:47;99524.63;;;6.79;100.00
16821;BME280;8527;49.740;6.604;2023-12-20T22:31:46;99529.50;;;6.73;100.00
16821;BME280;8527;49.740;6.604;2023-12-20T22:36:47;99518.94;;;6.73;100.00
16821;BME280;8527;49.740;6.604;2023-12-20T22:41:45;99494.25;;;6.74;100.00
16821;BME280;8527;49.740;6.604;2023-12-20T22:46:44;99476.63;;;6.75;100.00
16821;BME280;8527;49.740;6.604;2023-12-20T22:51:43;99483.41;;;6.78;100.00
16821;BME280;8527;49.740;6.604;2023-12-20T22:56:43;99476.63;;;6.75;100.00
16821;BME280;8527;49.740;6.604;2023-12-20T23:01:48;99469.41;;;6.77;100.00
16821;BME280;8527;49.740;6.604;2023-12-20T23:06:46;99466.44;;;6.80;100.00
16821;BME280;8527;49.740;6.604;2023-12-20T23:11:49;99437.09;;;6.75;100.00
16821;BME280;8527;49.740;6.604;2023-12-20T23:16:48;99452.47;;;6.80;100.00
16821;BME280;8527;49.740;6.604;2023-12-20T23:21:54;99441.75;;;6.81;100.00
16821;BME280;8527;49.740;6.604;2023-12-20T23:26:57;99449.66;;;6.81;100.00
16821;BME280;8527;49.740;6.604;2023-12-20T23:31:55;99451.03;;;6.85;100.00
16821;BME280;8527;49.740;6.604;2023-12-20T23:36:55;99447.41;;;6.86;100.00
16821;BME280;8527;49.740;6.604;2023-12-20T23:42:02;99463.44;;;6.93;100.00
16821;BME280;8527;49.740;6.604;2023-12-20T23:47:03;99440.53;;;6.94;100.00
16821;BME280;8527;49.740;6.604;2023-12-20T23:52:02;99426.06;;;6.98;100.00
16821;BME280;8527;49.740;6.604;2023-12-20T23:57:06;99408.44;;;6.98;100.00
